Time;durP1;ratioP1;P1;durP2;ratioP2;P2;SDS_P1;SDS_P2;PMS_P1;PMS_P2;Temp;Humidity;BMP_temperature;BMP_pressure;BME280_temperature;BME280_humidity;BME280_pressure;Samples;Min_cycle;Max_cycle;Signal;HPM_P1;HPM_P2
2024/01/19 00:00:41;;;;;;;47.00;27.48;;;;;;;-0.93;100.00;98774.41;5034456;28;20021;-81
2024/01/19 00:03:07;;;;;;;50.03;25.70;;;;;;;-1.06;100.00;98760.13;5034486;28;20108;-81
2024/01/19 00:05:32;;;;;;;54.47;26.45;;;;;;;-0.91;100.00;98788.03;5034393;28;20445;-81
2024/01/19 00:07:57;;;;;;;46.00;26.38;;;;;;;-0.92;100.00;98778.69;5034294;28;20030;-81
2024/01/19 00:10:23;;;;;;;48.90;27.50;;;;;;;-1.11;100.00;98754.22;5035124;28;20032;-81
2024/01/19 00:12:48;;;;;;;48.03;26.95;;;;;;;-0.80;100.00;98803.19;5035471;28;20021;-81
2024/01/19 00:15:14;;;;;;;52.63;26.10;;;;;;;-1.09;100.00;98767.84;5034174;28;20369;-81
2024/01/19 00:17:39;;;;;;;45.83;26.08;;;;;;;-1.05;100.00;98764.38;5034884;28;20022;-80
2024/01/19 00:20:08;;;;;;;51.90;27.35;;;;;;;-1.24;100.00;98737.38;5034537;28;20017;-81
2024/01/19 00:22:34;;;;;;;52.80;28.00;;;;;;;-0.89;100.00;98799.06;5035344;28;20361;-81
2024/01/19 00:24:59;;;;;;;46.20;25.65;;;;;;;-0.90;100.00;98804.22;5033999;28;20021;-80
2024/01/19 00:27:25;;;;;;;43.45;23.52;;;;;;;-1.07;100.00;98779.72;5041248;28;20096;-81
2024/01/19 00:29:50;;;;;;;49.40;25.05;;;;;;;-0.83;100.00;98823.72;5042647;28;20511;-81
2024/01/19 00:32:16;;;;;;;52.90;24.55;;;;;;;-1.03;100.00;98803.53;5044393;28;20061;-81
2024/01/19 00:34:41;;;;;;;49.80;26.15;;;;;;;-0.87;100.00;98814.41;5041044;28;20064;-81
2024/01/19 00:37:07;;;;;;;44.58;24.13;;;;;;;-1.05;100.00;98801.00;5047857;28;20512;-81
2024/01/19 00:39:32;;;;;;;46.40;23.67;;;;;;;-0.85;100.00;98839.06;5047350;28;20037;-81
2024/01/19 00:41:58;;;;;;;43.10;24.20;;;;;;;-0.86;100.00;98844.19;5044577;28;20033;-81
2024/01/19 00:44:23;;;;;;;38.72;21.58;;;;;;;-1.18;100.00;98803.72;5035842;28;20037;-82
2024/01/19 00:46:50;;;;;;;37.72;22.60;;;;;;;-1.04;100.00;98825.69;5031360;28;20068;-81
2024/01/19 00:49:15;;;;;;;38.40;24.17;;;;;;;-1.26;100.00;98791.91;5030852;28;20626;-81
2024/01/19 00:51:41;;;;;;;38.65;21.67;;;;;;;-1.03;100.00;98822.25;5030995;28;20056;-81
2024/01/19 00:54:06;;;;;;;38.33;21.25;;;;;;;-0.73;100.00;98873.00;5030826;28;20039;-81
2024/01/19 00:56:32;;;;;;;39.25;21.30;;;;;;;-0.87;100.00;98845.91;5031169;28;20022;-81
2024/01/19 00:58:58;;;;;;;33.65;21.02;;;;;;;-0.96;100.00;98835.81;5030571;28;20465;-81
2024/01/19 01:01:23;;;;;;;36.30;21.73;;;;;;;-0.89;100.00;98837.41;5030570;28;20038;-81
2024/01/19 01:03:49;;;;;;;39.40;21.30;;;;;;;-0.92;100.00;98845.13;5030486;28;20029;-81
2024/01/19 01:06:14;;;;;;;36.55;20.08;;;;;;;-0.98;100.00;98834.13;5031306;28;20034;-81
2024/01/19 01:08:39;;;;;;;35.83;20.52;;;;;;;-0.83;100.00;98869.72;5033163;28;20075;-81
2024/01/19 01:11:05;;;;;;;38.47;23.27;;;;;;;-0.78;100.00;98883.28;5032830;28;20427;-81
2024/01/19 01:13:31;;;;;;;37.03;20.02;;;;;;;-1.02;100.00;98846.94;5033289;28;20052;-81
2024/01/19 01:15:57;;;;;;;39.55;21.98;;;;;;;-0.74;100.00;98902.84;5033163;28;20036;-81
2024/01/19 01:18:23;;;;;;;35.03;20.63;;;;;;;-0.77;100.00;98908.00;5032659;28;20052;-81
2024/01/19 01:20:50;;;;;;;37.22;22.20;;;;;;;-0.82;100.00;98900.38;5032655;28;20026;-81
2024/01/19 01:23:16;;;;;;;37.88;22.58;;;;;;;-0.79;100.00;98937.84;5033048;28;20045;-81
2024/01/19 01:25:41;;;;;;;40.60;22.15;;;;;;;-0.89;100.00;98914.09;5032785;28;20060;-81
2024/01/19 01:28:07;;;;;;;38.70;22.80;;;;;;;-0.92;100.00;98906.47;5032557;28;20030;-81
2024/01/19 01:30:32;;;;;;;41.58;22.42;;;;;;;-0.88;100.00;98926.03;5032097;28;20023;-81
2024/01/19 01:32:57;;;;;;;40.17;21.95;;;;;;;-1.03;100.00;98898.94;5032589;28;20025;-81
2024/01/19 01:35:23;;;;;;;39.30;21.42;;;;;;;-0.90;100.00;98920.06;5032757;28;20021;-81
2024/01/19 01:37:48;;;;;;;33.78;19.95;;;;;;;-0.99;100.00;98914.25;5032290;28;20077;-81
2024/01/19 01:40:14;;;;;;;33.97;20.25;;;;;;;-1.02;100.00;98920.22;5032346;28;20037;-81
2024/01/19 01:42:39;;;;;;;35.78;19.75;;;;;;;-1.29;100.00;98890.72;5032724;28;20033;-81
2024/01/19 01:45:05;;;;;;;36.95;20.30;;;;;;;-1.31;100.00;98897.53;5032603;28;20033;-81
2024/01/19 01:47:31;;;;;;;33.67;18.95;;;;;;;-1.19;100.00;98909.34;5032545;28;20025;-81
2024/01/19 01:49:57;;;;;;;39.50;20.88;;;;;;;-1.01;100.00;98938.13;5031046;28;20018;-81
2024/01/19 01:52:23;;;;;;;32.47;19.27;;;;;;;-1.16;100.00;98917.00;5032523;28;20025;-81
2024/01/19 01:54:51;;;;;;;34.47;19.05;;;;;;;-1.20;100.00;98917.88;5032144;28;20071;-81
2024/01/19 01:57:19;;;;;;;32.47;20.17;;;;;;;-1.31;100.00;98900.97;5032385;28;20404;-81
2024/01/19 01:59:46;;;;;;;33.75;18.52;;;;;;;-1.37;100.00;98897.63;5032509;28;20025;-81
2024/01/19 02:02:11;;;;;;;30.73;18.90;;;;;;;-1.11;100.00;98935.66;5032261;28;20595;-81
2024/01/19 02:04:37;;;;;;;30.88;18.05;;;;;;;-1.37;100.00;98893.38;5032583;28;20048;-81
2024/01/19 02:07:02;;;;;;;26.55;14.40;;;;;;;-1.38;100.00;98895.94;5031011;28;20017;-81
2024/01/19 02:09:28;;;;;;;25.40;16.38;;;;;;;-1.32;100.00;98909.47;5032411;28;20040;-81
2024/01/19 02:11:54;;;;;;;22.63;14.55;;;;;;;-1.10;100.00;98953.53;5032733;28;20026;-81
2024/01/19 02:14:19;;;;;;;24.67;15.15;;;;;;;-1.16;100.00;98951.06;5032539;28;20056;-81
2024/01/19 02:16:44;;;;;;;21.63;13.40;;;;;;;-1.29;100.00;98940.13;5032443;28;20054;-81
2024/01/19 02:19:10;;;;;;;22.48;13.85;;;;;;;-1.19;100.00;98957.91;5032077;28;20116;-81
2024/01/19 02:21:35;;;;;;;22.50;14.10;;;;;;;-1.18;100.00;98970.69;5032095;28;20457;-81
2024/01/19 02:24:03;;;;;;;24.23;15.13;;;;;;;-1.43;100.00;98938.53;5032141;28;20025;-81
2024/01/19 02:26:34;;;;;;;20.92;12.38;;;;;;;-1.56;100.00;98940.38;5032312;28;20036;-81
2024/01/19 02:29:00;;;;;;;21.48;13.68;;;;;;;-1.64;100.00;98948.13;5032062;28;20076;-81
2024/01/19 02:31:26;;;;;;;19.60;12.85;;;;;;;-1.72;100.00;98951.59;5032383;28;20029;-81
2024/01/19 02:33:51;;;;;;;19.15;12.65;;;;;;;-1.56;99.50;98982.09;5032042;28;20026;-81
2024/01/19 02:36:17;;;;;;;24.02;14.38;;;;;;;-1.73;99.84;98971.16;5032540;28;20055;-81
2024/01/19 02:38:43;;;;;;;21.20;13.68;;;;;;;-2.01;99.73;98929.69;5031008;28;20060;-81
2024/01/19 02:41:08;;;;;;;25.08;13.38;;;;;;;-1.96;99.60;98963.69;5032027;28;20369;-81
2024/01/19 02:43:34;;;;;;;19.50;13.27;;;;;;;-1.82;98.96;99022.28;5033789;28;20032;-81
2024/01/19 02:45:59;;;;;;;22.88;13.00;;;;;;;-1.94;99.50;98990.03;5035545;28;20113;-81
2024/01/19 02:48:24;;;;;;;25.52;14.52;;;;;;;-2.18;98.99;98967.25;5034517;28;20022;-81
2024/01/19 02:50:50;;;;;;;24.33;13.77;;;;;;;-1.96;99.92;99019.81;5034452;28;20036;-81
2024/01/19 02:53:15;;;;;;;22.55;12.60;;;;;;;-2.02;99.32;99025.81;5035484;28;20025;-81
2024/01/19 02:55:41;;;;;;;22.17;12.77;;;;;;;-2.16;99.20;99002.06;5035925;28;20037;-81
2024/01/19 02:58:06;;;;;;;21.17;12.88;;;;;;;-2.41;99.04;98969.91;5035263;28;20021;-81
2024/01/19 03:00:32;;;;;;;22.08;12.18;;;;;;;-2.43;98.29;99007.34;5035621;28;20036;-81
2024/01/19 03:02:57;;;;;;;25.83;13.63;;;;;;;-2.46;98.98;99023.47;5035519;28;20061;-81
2024/01/19 03:05:23;;;;;;;21.27;12.63;;;;;;;-2.32;98.99;99042.16;5035541;28;20432;-81
2024/01/19 03:07:48;;;;;;;20.02;13.15;;;;;;;-2.48;98.98;99024.38;5035316;28;20029;-81
2024/01/19 03:10:14;;;;;;;21.35;13.18;;;;;;;-2.44;98.91;99046.41;5035145;28;20035;-81
2024/01/19 03:12:39;;;;;;;23.50;14.18;;;;;;;-2.45;99.10;99053.22;5035368;28;20025;-81
2024/01/19 03:15:05;;;;;;;23.58;14.05;;;;;;;-2.78;98.78;99001.53;5035291;28;20053;-81
2024/01/19 03:17:32;;;;;;;20.55;13.20;;;;;;;-2.63;98.76;99027.81;5035434;28;20045;-81
2024/01/19 03:19:58;;;;;;;23.70;14.50;;;;;;;-2.66;99.20;99020.16;5035123;28;20097;-80
2024/01/19 03:22:23;;;;;;;21.40;13.88;;;;;;;-2.70;99.45;99024.41;5035439;28;20021;-81
2024/01/19 03:24:49;;;;;;;21.90;13.35;;;;;;;-2.46;99.40;99064.28;5035403;28;20029;-81
2024/01/19 03:27:14;;;;;;;24.30;13.45;;;;;;;-2.57;99.72;99045.63;5034954;28;20029;-80
2024/01/19 03:29:40;;;;;;;19.33;12.65;;;;;;;-2.43;99.59;99063.44;5035176;28;20025;-80
2024/01/19 03:32:05;;;;;;;22.38;12.85;;;;;;;-2.42;99.53;99067.69;5035139;28;20013;-81
2024/01/19 03:34:31;;;;;;;21.08;12.65;;;;;;;-2.49;100.00;99051.53;5034946;28;20048;-81
2024/01/19 03:36:56;;;;;;;24.33;12.52;;;;;;;-2.24;99.95;99085.44;5034774;28;20047;-80
2024/01/19 03:39:23;;;;;;;21.50;13.50;;;;;;;-2.30;99.76;99072.72;5035144;28;20183;-80
2024/01/19 03:41:48;;;;;;;22.67;12.57;;;;;;;-2.47;99.67;99067.69;5034787;28;20017;-80
2024/01/19 03:44:14;;;;;;;18.90;12.00;;;;;;;-2.46;99.76;99060.88;5033086;28;20022;-80
2024/01/19 03:46:39;;;;;;;21.10;13.07;;;;;;;-2.29;99.98;99100.78;5034758;28;20026;-81
2024/01/19 03:49:04;;;;;;;24.10;13.43;;;;;;;-2.45;99.60;99077.88;5033208;28;20021;-81
2024/01/19 03:51:30;;;;;;;20.02;12.30;;;;;;;-2.39;100.00;99101.66;5034687;28;20445;-80
2024/01/19 03:53:55;;;;;;;22.10;13.73;;;;;;;-2.39;100.00;99099.13;5033817;28;20021;-80
2024/01/19 03:56:21;;;;;;;23.25;12.68;;;;;;;-2.35;99.53;99115.25;5034400;28;20022;-81
2024/01/19 03:58:46;;;;;;;20.58;12.70;;;;;;;-2.58;99.82;99105.13;5034810;28;20461;-80
2024/01/19 04:01:12;;;;;;;20.70;11.98;;;;;;;-2.78;100.00;99070.34;5035074;28;20017;-80
2024/01/19 04:03:37;;;;;;;19.85;11.63;;;;;;;-2.54;99.77;99104.25;5034843;28;20100;-81
2024/01/19 04:06:03;;;;;;;19.35;11.63;;;;;;;-2.68;99.91;99090.72;5034250;28;20021;-81
2024/01/19 04:08:28;;;;;;;20.92;12.50;;;;;;;-2.57;99.83;99114.44;5034079;28;20026;-81
2024/01/19 04:10:54;;;;;;;27.15;12.68;;;;;;;-2.63;100.00;99125.53;5034251;28;20026;-81
2024/01/19 04:13:19;;;;;;;19.95;12.13;;;;;;;-2.95;100.00;99089.03;5033935;28;20033;-80
2024/01/19 04:15:45;;;;;;;24.40;13.30;;;;;;;-2.63;100.00;99129.78;5034224;28;20021;-81
2024/01/19 04:18:10;;;;;;;25.90;14.15;;;;;;;-2.69;100.00;99133.19;5034021;28;20519;-80
2024/01/19 04:20:36;;;;;;;23.67;13.60;;;;;;;-2.68;100.00;99139.13;5033810;28;20100;-80
2024/01/19 04:23:02;;;;;;;21.85;12.15;;;;;;;-2.75;100.00;99130.63;5033844;28;20461;-80
2024/01/19 04:25:28;;;;;;;26.23;13.20;;;;;;;-3.05;100.00;99091.59;5034016;28;20033;-79
2024/01/19 04:27:55;;;;;;;21.45;13.70;;;;;;;-2.79;100.00;99121.31;5034110;28;20030;-81
2024/01/19 04:30:21;;;;;;;23.05;13.73;;;;;;;-2.90;100.00;99100.09;5032503;28;20027;-81
2024/01/19 04:32:46;;;;;;;20.83;13.18;;;;;;;-2.80;100.00;99138.28;5033898;28;20024;-81
2024/01/19 04:35:11;;;;;;;21.83;13.18;;;;;;;-2.93;100.00;99133.22;5033866;28;20079;-80
2024/01/19 04:37:37;;;;;;;21.10;12.57;;;;;;;-2.95;100.00;99135.78;5032614;28;20033;-81
2024/01/19 04:40:03;;;;;;;23.55;14.35;;;;;;;-2.87;100.00;99154.44;5033429;28;20032;-80
2024/01/19 04:42:28;;;;;;;21.50;12.77;;;;;;;-2.98;100.00;99130.69;5033879;28;20104;-81
2024/01/19 04:44:54;;;;;;;25.08;12.77;;;;;;;-3.05;100.00;99128.97;5033937;28;20100;-81
2024/01/19 04:47:19;;;;;;;23.42;13.18;;;;;;;-2.86;100.00;99160.41;5032194;28;20107;-81
2024/01/19 04:49:44;;;;;;;24.08;13.35;;;;;;;-2.92;100.00;99155.28;5033388;28;20025;-81
2024/01/19 04:52:10;;;;;;;24.08;14.15;;;;;;;-2.77;100.00;99158.69;5033449;28;20036;-80
2024/01/19 04:54:35;;;;;;;21.52;13.68;;;;;;;-3.03;100.00;99123.03;5034080;28;20079;-81
2024/01/19 04:57:00;;;;;;;26.60;14.15;;;;;;;-2.80;100.00;99155.28;5034013;28;20127;-81
2024/01/19 04:59:26;;;;;;;24.38;13.75;;;;;;;-2.84;100.00;99159.53;5032462;28;20036;-81
2024/01/19 05:01:51;;;;;;;22.10;13.40;;;;;;;-2.78;100.00;99162.09;5030807;28;20033;-81
2024/01/19 05:04:17;;;;;;;24.17;15.32;;;;;;;-2.78;100.00;99166.34;5030970;28;20112;-80
2024/01/19 05:06:42;;;;;;;26.80;15.10;;;;;;;-2.79;100.00;99167.16;5030837;28;20041;-80
2024/01/19 05:09:08;;;;;;;31.25;15.65;;;;;;;-2.91;99.79;99139.16;5014130;28;20350;-81
2024/01/19 05:11:33;;;;;;;26.48;15.18;;;;;;;-3.06;99.35;99114.53;5030900;28;20041;-81
2024/01/19 05:13:58;;;;;;;27.98;15.15;;;;;;;-2.89;99.55;99145.09;5031126;28;20055;-80
2024/01/19 05:16:24;;;;;;;29.33;15.35;;;;;;;-3.04;99.38;99134.06;5030843;28;20033;-80
2024/01/19 05:18:49;;;;;;;27.20;15.40;;;;;;;-2.86;99.26;99178.25;5014297;28;20032;-81
2024/01/19 05:21:15;;;;;;;28.05;16.10;;;;;;;-3.14;99.18;99147.66;5030674;28;20037;-80
2024/01/19 05:23:40;;;;;;;37.58;17.05;;;;;;;-3.02;99.53;99165.50;5031180;28;20032;-81
2024/01/19 05:26:06;;;;;;;29.25;16.50;;;;;;;-2.99;99.22;99181.63;5030917;28;20152;-81
2024/01/19 05:28:36;;;;;;;29.85;16.67;;;;;;;-3.09;99.07;99171.41;5030727;28;20036;-80
2024/01/19 05:31:02;;;;;;;28.67;16.23;;;;;;;-3.46;99.25;99113.66;5031086;28;20083;-81
2024/01/19 05:33:27;;;;;;;30.38;17.40;;;;;;;-3.01;99.30;99196.91;5026700;28;20571;-81
2024/01/19 05:35:53;;;;;;;28.05;16.50;;;;;;;-3.01;99.03;99200.31;5032404;28;20109;-81
2024/01/19 05:38:18;;;;;;;29.55;17.95;;;;;;;-3.28;98.46;99155.28;5033079;28;20141;-81
2024/01/19 05:40:43;;;;;;;30.73;16.98;;;;;;;-3.21;98.59;99173.09;5033163;28;20030;-80
2024/01/19 05:43:09;;;;;;;28.92;16.85;;;;;;;-3.31;97.89;99150.19;5033170;28;20021;-80
2024/01/19 05:45:34;;;;;;;31.05;17.00;;;;;;;-3.29;97.61;99163.78;5033452;28;20021;-81
2024/01/19 05:48:00;;;;;;;29.50;18.00;;;;;;;-3.12;97.80;99211.31;5033408;28;20104;-81
2024/01/19 05:50:25;;;;;;;27.90;17.35;;;;;;;-3.40;97.34;99183.28;5031694;28;20387;-80
2024/01/19 05:52:50;;;;;;;28.75;17.55;;;;;;;-3.18;97.57;99224.06;5033399;28;20018;-81
2024/01/19 05:55:16;;;;;;;31.30;17.90;;;;;;;-3.34;97.40;99201.09;5033379;28;20040;-81
2024/01/19 05:57:41;;;;;;;33.08;17.65;;;;;;;-3.54;97.25;99179.84;5033510;28;20028;-80
2024/01/19 06:00:07;;;;;;;33.75;17.60;;;;;;;-3.34;97.68;99239.28;5032854;28;20361;-81
2024/01/19 06:02:33;;;;;;;32.72;17.33;;;;;;;-3.64;97.48;99211.22;5030495;28;20061;-81
2024/01/19 06:04:58;;;;;;;28.30;18.02;;;;;;;-3.47;97.64;99257.09;5030378;28;20559;-81
2024/01/19 06:07:24;;;;;;;26.92;17.20;;;;;;;-3.79;97.72;99210.31;5013782;28;20084;-81
2024/01/19 06:09:49;;;;;;;30.25;17.73;;;;;;;-3.53;97.97;99265.56;5030556;28;20440;-81
2024/01/19 06:12:15;;;;;;;34.10;19.65;;;;;;;-3.46;97.96;99272.34;5030229;28;20086;-81
2024/01/19 06:14:40;;;;;;;31.35;18.42;;;;;;;-3.58;97.89;99245.19;5030586;28;20465;-81
2024/01/19 06:17:05;;;;;;;37.97;20.60;;;;;;;-3.53;97.53;99279.13;5031077;28;20505;-81
2024/01/19 06:19:31;;;;;;;58.33;29.02;;;;;;;-3.56;97.99;99278.28;5034007;28;20040;-81
2024/01/19 06:21:56;;;;;;;58.40;29.75;;;;;;;-3.81;98.25;99251.84;5034125;28;20048;-81
2024/01/19 06:24:22;;;;;;;52.45;29.52;;;;;;;-3.87;98.38;99255.25;5034194;28;20389;-81
2024/01/19 06:26:48;;;;;;;49.83;28.15;;;;;;;-3.87;98.83;99267.09;5034710;28;20108;-81
2024/01/19 06:29:15;;;;;;;52.88;30.73;;;;;;;-3.65;98.73;99296.91;5034080;28;20033;-81
2024/01/19 06:31:48;;;;;;;41.83;26.05;;;;;;;-3.74;98.91;99275.66;5034577;28;20459;-81
2024/01/19 06:34:14;;;;;;;45.22;25.65;;;;;;;-3.58;98.72;99302.84;5035584;28;20029;-81
2024/01/19 06:36:44;;;;;;;44.17;22.70;;;;;;;-3.62;98.40;99298.63;5035259;28;20017;-81
2024/01/19 06:39:11;;;;;;;34.67;20.73;;;;;;;-3.77;98.36;99290.03;5036922;28;20041;-80
2024/01/19 06:41:44;;;;;;;35.42;21.55;;;;;;;-3.85;98.06;99278.13;5037132;28;20033;-81
2024/01/19 06:44:12;;;;;;;36.53;21.33;;;;;;;-3.85;97.97;99283.22;5036759;28;20025;-81
2024/01/19 06:46:38;;;;;;;39.67;21.30;;;;;;;-3.70;98.04;99300.28;5036992;28;20030;-81
2024/01/19 06:49:04;;;;;;;33.53;19.98;;;;;;;-3.63;97.90;99297.75;5036969;28;20059;-81
2024/01/19 06:51:29;;;;;;;33.92;18.80;;;;;;;-3.63;97.96;99286.72;5036937;28;20081;-81
2024/01/19 06:53:56;;;;;;;34.55;20.30;;;;;;;-3.85;97.47;99245.06;5038439;28;20030;-81
2024/01/19 06:56:22;;;;;;;35.35;20.45;;;;;;;-3.68;97.25;99288.38;5036401;28;20021;-81
2024/01/19 06:58:47;;;;;;;36.72;20.00;;;;;;;-3.71;97.02;99280.72;5036343;28;20036;-81
2024/01/19 07:01:12;;;;;;;39.00;22.35;;;;;;;-3.77;97.38;99284.09;5035847;28;20018;-81
2024/01/19 07:03:38;;;;;;;33.53;21.02;;;;;;;-4.12;96.88;99249.16;5040584;28;20045;-81
2024/01/19 07:06:03;;;;;;;38.25;21.27;;;;;;;-3.89;97.26;99284.03;5051241;28;20071;-81
2024/01/19 07:08:29;;;;;;;39.55;22.35;;;;;;;-4.19;97.34;99244.88;5049571;28;20029;-81
2024/01/19 07:10:54;;;;;;;46.08;25.80;;;;;;;-3.98;97.15;99294.16;5043161;28;20420;-81
2024/01/19 07:13:20;;;;;;;45.33;26.35;;;;;;;-4.02;97.19;99294.16;5038276;28;20057;-81
2024/01/19 07:15:45;;;;;;;49.40;28.55;;;;;;;-4.06;97.70;99284.78;5035624;28;20030;-81
2024/01/19 07:18:10;;;;;;;48.95;28.02;;;;;;;-3.94;97.38;99294.19;5035004;28;20033;-81
2024/01/19 07:20:36;;;;;;;52.60;29.90;;;;;;;-3.93;96.90;99275.53;5035300;28;20030;-81
2024/01/19 07:23:03;;;;;;;45.33;26.13;;;;;;;-3.76;96.63;99296.84;5035026;28;20022;-81
2024/01/19 07:25:28;;;;;;;44.28;24.13;;;;;;;-3.74;95.84;99301.94;5034983;28;20025;-82
2024/01/19 07:27:54;;;;;;;42.53;23.70;;;;;;;-3.77;95.41;99305.31;5034688;28;20429;-81
2024/01/19 07:30:19;;;;;;;47.05;25.50;;;;;;;-3.91;94.36;99283.19;5035420;28;20079;-81
2024/01/19 07:32:44;;;;;;;41.45;25.27;;;;;;;-3.86;93.03;99315.44;5036964;28;20100;-81
2024/01/19 07:35:10;;;;;;;45.28;26.35;;;;;;;-4.03;92.35;99330.59;5035701;28;20021;-80
2024/01/19 07:37:35;;;;;;;48.08;27.33;;;;;;;-4.21;92.34;99317.78;5033412;28;20038;-81
2024/01/19 07:40:01;;;;;;;50.63;27.63;;;;;;;-4.56;92.41;99270.03;5034807;28;20040;-81
2024/01/19 07:42:26;;;;;;;54.53;29.70;;;;;;;-4.55;92.68;99287.00;5033409;28;20061;-80
2024/01/19 07:44:51;;;;;;;55.40;31.38;;;;;;;-4.60;92.99;99293.72;5034474;28;20034;-81
2024/01/19 07:47:17;;;;;;;81.40;45.72;;;;;;;-4.38;93.53;99344.72;5034773;28;20026;-80
2024/01/19 07:49:42;;;;;;;66.28;37.53;;;;;;;-4.41;94.58;99327.78;5034136;28;20029;-81
2024/01/19 07:52:08;;;;;;;64.72;34.67;;;;;;;-4.53;95.09;99298.00;5033939;28;20025;-80
2024/01/19 07:54:33;;;;;;;58.90;35.35;;;;;;;-4.32;95.38;99327.00;5033057;28;20017;-80
2024/01/19 07:56:58;;;;;;;65.10;36.40;;;;;;;-4.43;95.61;99305.72;5034186;28;20128;-81
2024/01/19 07:59:27;;;;;;;57.92;34.75;;;;;;;-4.51;95.25;99295.47;5036275;28;20423;-81
2024/01/19 08:01:52;;;;;;;57.30;33.70;;;;;;;-4.19;95.64;99345.75;5034364;28;20047;-80
2024/01/19 08:04:18;;;;;;;59.83;34.65;;;;;;;-4.33;95.55;99328.69;5034566;28;20029;-80
2024/01/19 08:06:43;;;;;;;59.25;34.65;;;;;;;-4.34;95.49;99329.53;5033943;28;20032;-80
2024/01/19 08:09:11;;;;;;;61.65;33.97;;;;;;;-4.23;95.70;99347.41;5034648;28;20021;-80
2024/01/19 08:11:36;;;;;;;57.60;31.23;;;;;;;-4.23;96.05;99359.28;5034271;28;20520;-80
2024/01/19 08:14:02;;;;;;;45.85;27.15;;;;;;;-4.22;96.05;99354.19;5034362;28;20109;-80
2024/01/19 08:16:27;;;;;;;49.33;26.30;;;;;;;-4.16;96.54;99361.88;5032587;28;20116;-81
2024/01/19 08:18:53;;;;;;;50.03;26.60;;;;;;;-4.42;96.80;99322.69;5033470;28;20037;-81
2024/01/19 08:21:18;;;;;;;50.72;26.98;;;;;;;-4.35;97.75;99329.50;5034075;28;20029;-81
2024/01/19 08:23:46;;;;;;;46.75;26.05;;;;;;;-4.33;97.49;99327.84;5034578;28;20033;-81
2024/01/19 08:26:11;;;;;;;45.55;24.25;;;;;;;-4.35;97.83;99311.72;5033162;28;20368;-82
2024/01/19 08:28:37;;;;;;;49.25;26.65;;;;;;;-4.08;97.20;99352.63;5033976;28;20018;-81
2024/01/19 08:31:03;;;;;;;40.20;23.85;;;;;;;-4.27;97.63;99320.25;5051404;28;20087;-81
2024/01/19 08:33:28;;;;;;;52.80;29.40;;;;;;;-3.93;97.90;99364.56;5034717;28;20164;-82
2024/01/19 08:35:54;;;;;;;66.00;36.22;;;;;;;-3.96;98.67;99354.41;5050835;28;20574;-82
2024/01/19 08:38:19;;;;;;;62.83;33.58;;;;;;;-3.86;98.01;99366.34;5010160;28;1167247;-82
2024/01/19 08:40:45;;;;;;;64.93;35.50;;;;;;;-3.90;97.28;99362.06;5051726;28;20044;-80
2024/01/19 08:43:10;;;;;;;90.35;44.75;;;;;;;-3.88;96.88;99373.09;5052193;28;20065;-81
2024/01/19 08:45:35;;;;;;;101.13;46.20;;;;;;;-3.83;97.51;99380.78;5052262;28;20040;-82
2024/01/19 08:48:02;;;;;;;70.55;36.08;;;;;;;-3.76;97.83;99385.91;5052324;28;20036;-82
2024/01/19 08:50:28;;;;;;;50.53;27.85;;;;;;;-3.97;97.78;99339.09;5053141;28;20033;-82
2024/01/19 08:52:53;;;;;;;79.18;41.15;;;;;;;-3.87;97.01;99361.25;5052781;28;20051;-82
2024/01/19 08:55:20;;;;;;;81.57;42.70;;;;;;;-3.89;96.32;99373.09;5052396;28;20028;-82
2024/01/19 08:57:45;;;;;;;80.53;41.72;;;;;;;-3.96;96.47;99372.22;5052964;28;20029;-82
2024/01/19 09:00:11;;;;;;;93.88;49.65;;;;;;;-4.39;97.38;99295.56;5051821;28;20043;-82
2024/01/19 09:02:36;;;;;;;64.50;35.38;;;;;;;-3.65;97.69;99395.31;5038757;28;20042;-82
2024/01/19 09:05:02;;;;;;;63.40;33.38;;;;;;;-3.60;98.36;99414.84;5034536;28;20025;-82
2024/01/19 09:07:28;;;;;;;63.97;32.95;;;;;;;-3.81;97.86;99376.53;5033928;28;20021;-82
2024/01/19 09:09:53;;;;;;;60.97;32.15;;;;;;;-3.76;97.54;99382.50;5033241;28;20034;-82
2024/01/19 09:12:18;;;;;;;72.35;37.10;;;;;;;-3.77;98.16;99384.19;5033651;28;20022;-83
2024/01/19 09:14:44;;;;;;;63.92;32.38;;;;;;;-3.49;98.66;99407.31;5034424;28;20071;-82
2024/01/19 09:17:09;;;;;;;63.97;33.97;;;;;;;-3.43;99.48;99409.00;5033395;28;20021;-83
2024/01/19 09:19:35;;;;;;;81.65;46.00;;;;;;;-3.54;98.80;99389.44;5034787;28;20025;-82
2024/01/19 09:22:00;;;;;;;51.97;26.80;;;;;;;-3.28;98.21;99442.22;5034355;28;20499;-83
2024/01/19 09:24:27;;;;;;;48.95;24.88;;;;;;;-3.35;98.15;99443.03;5034628;28;20480;-82
2024/01/19 09:26:52;;;;;;;62.03;29.45;;;;;;;-3.28;98.68;99449.84;5034537;28;20334;-83
2024/01/19 09:29:17;;;;;;;77.13;39.05;;;;;;;-3.28;99.49;99445.63;5034810;28;20021;-81
2024/01/19 09:31:44;;;;;;;77.45;42.30;;;;;;;-3.42;98.91;99415.81;5034212;28;20017;-83
2024/01/19 09:34:10;;;;;;;72.60;39.75;;;;;;;-3.15;98.79;99460.97;5034718;28;20392;-82
2024/01/19 09:36:37;;;;;;;81.25;44.40;;;;;;;-3.15;98.14;99459.28;5034286;28;20049;-82
2024/01/19 09:39:03;;;;;;;68.75;36.55;;;;;;;-3.35;98.32;99420.94;5033882;28;20103;-82
2024/01/19 09:41:32;;;;;;;58.63;32.80;;;;;;;-3.10;99.03;99442.31;5033961;28;20029;-82
2024/01/19 09:43:59;;;;;;;43.40;26.33;;;;;;;-2.94;99.88;99455.97;5034577;28;20391;-81
2024/01/19 09:46:29;;;;;;;50.40;27.38;;;;;;;-2.94;99.71;99450.88;5037681;28;20052;-79
2024/01/19 09:49:22;;;;;;;46.15;25.35;;;;;;;-2.87;99.14;99462.78;5040210;28;20097;-79
2024/01/19 09:51:53;;;;;;;49.17;23.45;;;;;;;-2.88;99.49;99460.25;5042038;28;20037;-81
2024/01/19 09:54:28;;;;;;;50.30;26.40;;;;;;;-3.02;100.00;99417.72;5044913;28;20112;-80
2024/01/19 09:56:53;;;;;;;51.47;25.60;;;;;;;-2.77;100.00;99445.84;5042018;28;20045;-80
2024/01/19 09:59:20;;;;;;;45.42;25.63;;;;;;;-3.19;100.00;99386.22;5043682;28;20020;-79
2024/01/19 10:01:48;;;;;;;48.72;23.15;;;;;;;-2.75;100.00;99446.69;5045997;28;20371;-79
2024/01/19 10:04:15;;;;;;;47.83;22.27;;;;;;;-2.80;99.98;99436.50;5044252;28;20040;-79
2024/01/19 10:06:42;;;;;;;40.10;23.10;;;;;;;-2.60;100.00;99463.75;5045662;28;20029;-80
2024/01/19 10:09:08;;;;;;;45.28;23.65;;;;;;;-2.68;100.00;99425.50;5045225;28;20049;-80
2024/01/19 10:11:34;;;;;;;37.50;21.55;;;;;;;-2.63;100.00;99430.59;5045703;28;20099;-80
2024/01/19 10:14:00;;;;;;;36.17;19.80;;;;;;;-2.46;100.00;99451.03;5045346;28;20021;-80
2024/01/19 10:16:25;;;;;;;35.85;19.55;;;;;;;-2.57;100.00;99440.81;5042517;28;20337;-80
2024/01/19 10:18:51;;;;;;;41.63;22.95;;;;;;;-2.44;100.00;99444.22;5041273;28;20263;-80
2024/01/19 10:21:27;;;;;;;47.33;26.90;;;;;;;-2.14;100.00;99467.28;5044022;28;20026;-82
2024/01/19 10:24:18;;;;;;;48.05;24.23;;;;;;;-2.07;100.00;99468.13;5044295;28;20021;-82
2024/01/19 10:26:47;;;;;;;48.88;24.55;;;;;;;-2.19;100.00;99456.22;5044164;28;20009;-82
2024/01/19 10:29:14;;;;;;;71.15;40.05;;;;;;;-2.01;100.00;99471.53;5045386;28;20116;-81
2024/01/19 10:31:41;;;;;;;63.65;32.35;;;;;;;-2.04;100.00;99458.78;5046345;28;20061;-82
2024/01/19 10:34:17;;;;;;;58.08;31.45;;;;;;;-2.10;100.00;99446.03;5046991;28;20456;-82
2024/01/19 10:36:44;;;;;;;61.53;31.42;;;;;;;-2.05;100.00;99448.56;5039152;28;20504;-82
2024/01/19 10:39:30;;;;;;;57.22;31.80;;;;;;;-2.08;100.00;99444.31;5035911;28;20076;-82
2024/01/19 10:42:07;;;;;;;88.55;39.88;;;;;;;-1.95;99.55;99467.28;5034687;28;20025;-83
2024/01/19 10:44:33;;;;;;;70.30;33.10;;;;;;;-2.21;98.53;99429.84;5036160;28;20051;-83
2024/01/19 10:46:59;;;;;;;91.65;40.88;;;;;;;-2.05;97.91;99462.19;5035982;28;20026;-82
2024/01/19 10:49:24;;;;;;;81.00;37.30;;;;;;;-1.95;98.01;99469.84;5034396;28;20029;-82
2024/01/19 10:51:50;;;;;;;64.75;31.50;;;;;;;-1.93;97.55;99475.81;5036043;28;20025;-83
2024/01/19 10:54:27;;;;;;;55.45;30.70;;;;;;;-2.08;98.16;99431.53;5035979;28;20036;-82
2024/01/19 10:57:05;;;;;;;74.25;36.42;;;;;;;-1.69;97.77;99488.56;5035859;28;20025;-82
2024/01/19 10:59:31;;;;;;;57.70;31.70;;;;;;;-1.83;97.15;99465.59;5034204;28;20041;-82
2024/01/19 11:01:59;;;;;;;61.15;35.08;;;;;;;-1.84;97.55;99440.06;5036615;28;20026;-82
2024/01/19 11:04:25;;;;;;;61.80;34.40;;;;;;;-1.53;97.49;99474.09;5035533;28;20026;-82
2024/01/19 11:06:50;;;;;;;62.15;33.92;;;;;;;-1.49;97.10;99460.47;5035566;28;20033;-82
2024/01/19 11:09:16;;;;;;;64.78;37.85;;;;;;;-1.45;96.88;99466.44;5035409;28;20039;-83